Buoy 53593

sailwx.info

Track history (hours):
 
Tides and Currents Weather Stations Pressure Air Temp Water Temp Dewpoint Dewpoint Depression Visibility Wind Speed Wind Dir Waves Ship Positions

Drifting buoy 53593

Last reported at 2016-Dec-07 22:00 UTC. Time now 2016-Dec-08 06:06 UTC.
Position S 20°40' E 106°05'.

Barometer 1011.9 mb
Water temperature 24.1 ° C

Date/timePositionNaut miles runAvg speedWind from/ knotsBaromVisibWave heightAir tempDewpointWater temp
2016-Dec-07 22:00S 20°40' E 106°05'1 0.8 1011.9 24.1
2016-Dec-07 21:00S 20°40' E 106°05'1 0.6 1011.4 24.1
2016-Dec-07 19:00S 20°39' E 106°07'2 0.5 1011.5 24.1
2016-Dec-07 14:00S 20°40' E 106°09'0 0.0 1013.2 24.2
2016-Dec-07 13:00S 20°40' E 106°09'1 0.4 1012.9 24.2
2016-Dec-07 11:00S 20°39' E 106°10'2 1.8 1011.8 24.2
2016-Dec-07 10:00S 20°38' E 106°11'2 1.7 1011.6 24.3
2016-Dec-07 09:00S 20°38' E 106°13'0 0.0 1011.4 24.3
2016-Dec-07 07:00S 20°38' E 106°13'4 3.6 1011.9 24.3
2016-Dec-07 06:00S 20°37' E 106°17'3 0.5 1012.2 24.3
2016-Dec-06 23:00S 20°37' E 106°20'0 0.0 1013.6 24.2
2016-Dec-06 22:00S 20°37' E 106°20'3 1.7 1012.8 24.2
2016-Dec-06 20:00S 20°35' E 106°23'0 0.0 1011.8 24.2
2016-Dec-06 19:00S 20°35' E 106°23'5 5.1 1011.8 24.3
2016-Dec-06 18:00S 20°35' E 106°29'2 0.6 1012.1 24.3
2016-Dec-06 14:00S 20°35' E 106°31'1 0.3 1013.3 24.4
2016-Dec-06 12:00S 20°35' E 106°32'1 0.8 1012.4 24.5
2016-Dec-06 11:00S 20°35' E 106°32'1 0.8 1011.8 24.5
2016-Dec-06 10:00S 20°35' E 106°32'0 0.0 1011.1 24.5
2016-Dec-06 09:00S 20°35' E 106°32'0 0.0 1010.7 24.6
2016-Dec-06 08:00S 20°35' E 106°32'8 0.9 1011.4 24.6
2016-Dec-05 23:00S 20°29' E 106°37'5 4.6 1013.9 24.5
2016-Dec-05 22:00S 20°26' E 106°40'0 0.0 1013.2 24.5
2016-Dec-05 21:00S 20°26' E 106°40'0 0.0 1012.7 24.6
2016-Dec-05 20:00S 20°26' E 106°40'0 0.0 1012.4 24.6
2016-Dec-05 19:00S 20°26' E 106°40'5 1.1 1012.7 24.6
2016-Dec-05 15:00S 20°23' E 106°44'2 2.3 1014.4 24.7
2016-Dec-05 14:00S 20°22' E 106°46'0 0.0 1013.9 24.7
2016-Dec-05 13:00S 20°22' E 106°46'4 1.2 1013.5 24.7
2016-Dec-05 10:00S 20°20' E 106°49'2 1.8 1012.0 24.8
2016-Dec-05 09:00S 20°19' E 106°51'0 0.0 1011.8 24.8
2016-Dec-05 08:00S 20°19' E 106°51'3 0.4 1012.0 24.8
2016-Dec-05 01:00S 20°16' E 106°52'1 1.3 1013.5 24.7
2016-Dec-05 00:00S 20°15' E 106°52'1 0.8 1013.1 24.7
2016-Dec-04 23:00S 20°14' E 106°53'1 1.3 1012.6 24.7
2016-Dec-04 22:00S 20°14' E 106°54'2 2.1 1012.1 24.7
2016-Dec-04 21:00S 20°13' E 106°56'1 0.3 1012.2 24.7
2016-Dec-04 19:00S 20°12' E 106°56'1 1.3 1012.6 24.8
2016-Dec-04 18:00S 20°13' E 106°56'2 0.6 1012.7 24.8
2016-Dec-04 15:00S 20°11' E 106°56'0 0.0 1013.5 24.8
2016-Dec-04 14:00S 20°11' E 106°56'2 0.9 1013.2 24.8
2016-Dec-04 12:00S 20°10' E 106°56'0 0.0 1012.0 24.8
2016-Dec-04 11:00S 20°10' E 106°56'1 1.3 1011.8 24.9
2016-Dec-04 10:00S 20°08' E 106°57'1 0.8 1011.4 24.9
2016-Dec-04 09:00S 20°08' E 106°58'0 0.0 1011.1 24.9
2016-Dec-04 08:00S 20°08' E 106°58'2 0.8 1011.2 24.9
2016-Dec-04 05:00S 20°05' E 106°58'2 0.5 1012.5 24.8
2016-Dec-04 00:00S 20°03' E 106°58'1 0.3 1012.6 24.7
2016-Dec-03 22:00S 20°02' E 106°58'1 0.6 1011.7 24.7
2016-Dec-03 21:00S 20°03' E 106°58'2 1.6 1011.6 24.7
2016-Dec-03 20:00S 20°02' E 106°59'3 1.1 1011.4 24.7
2016-Dec-03 17:00S 20°00' E 107°02'0 0.0 1012.4 24.8
2016-Dec-03 14:00S 20°00' E 107°02'1 0.6 1013.0 24.8
2016-Dec-03 12:00S 19°59' E 107°04'1 0.3 1012.4 24.8
2016-Dec-03 10:00S 20°00' E 107°04'1 0.6 1011.2 24.9
2016-Dec-03 09:00S 19°59' E 107°04'0 0.0 1011.1 24.9
2016-Dec-03 06:00S 19°59' E 107°04'2 0.5 1011.5 24.9
2016-Dec-03 01:00S 19°57' E 107°03'3 1.0 1012.4 24.7
2016-Dec-02 22:00S 19°55' E 107°05'0 0.0 1010.9 24.7
2016-Dec-02 21:00S 19°55' E 107°05'2 0.6 1010.5 24.7
2016-Dec-02 18:00S 19°53' E 107°05'0 0.0 1010.8 24.8
2016-Dec-02 17:00S 19°53' E 107°05'1 0.6 1011.2 24.8
2016-Dec-02 15:00S 19°52' E 107°07'1 0.6 1011.7 24.8
2016-Dec-02 14:00S 19°52' E 107°07'0 0.0 1011.4 24.8
2016-Dec-02 13:00S 19°52' E 107°07'1 0.4 1011.3 24.8
2016-Dec-02 10:00S 19°51' E 107°07'0 0.0 1010.5 24.8
2016-Dec-02 09:00S 19°51' E 107°07'0 0.0 1010.1 24.9
2016-Dec-02 08:00S 19°51' E 107°07'2 1.2 1010.2 24.9
2016-Dec-02 06:00S 19°49' E 107°09'1 0.1 1011.0 24.9
2016-Dec-02 02:00S 19°49' E 107°08'1 0.4 1013.3 24.6
2016-Dec-01 23:00S 19°48' E 107°09'0 0.0 1012.4 24.6
2016-Dec-01 22:00S 19°48' E 107°09'1 0.8 1011.8 24.6
2016-Dec-01 21:00S 19°47' E 107°10'0 0.0 1011.7 24.6
2016-Dec-01 20:00S 19°47' E 107°10'1 0.6 1011.5 24.7
2016-Dec-01 18:00S 19°46' E 107°10'0 0.0 1011.7 24.7
2016-Dec-01 17:00S 19°46' E 107°10'1 0.3 1012.2 24.7
2016-Dec-01 15:00S 19°46' E 107°10'0 0.0 1012.8 24.7
2016-Dec-01 14:00S 19°46' E 107°10'3 0.4 1013.0 24.7
2016-Dec-01 07:00S 19°43' E 107°11'0 0.0 1012.0 24.8
2016-Dec-01 06:00S 19°43' E 107°11'2 0.4 1012.1 24.8
2016-Dec-01 01:00S 19°41' E 107°12'0 0.0 1014.0 24.7
2016-Dec-01 00:00S 19°41' E 107°12'1 0.8 1013.9 24.7
2016-Nov-30 23:00S 19°41' E 107°13'1 0.6 1013.5 24.7
2016-Nov-30 22:00S 19°41' E 107°12'2 0.8 1013.3 24.7
2016-Nov-30 20:00S 19°40' E 107°13'2 0.3 1013.2 24.7
2016-Nov-30 15:00S 19°38' E 107°14'1 0.6 1014.9 24.8
2016-Nov-30 14:00S 19°39' E 107°14'1 1.3 1014.7 24.8
2016-Nov-30 13:00S 19°38' E 107°14'1 0.3 1014.3 24.9
2016-Nov-30 11:00S 19°38' E 107°14'0 0.0 1013.1 24.9
2016-Nov-30 10:00S 19°38' E 107°14'1 0.3 1012.7 24.9
2016-Nov-30 07:00S 19°37' E 107°15'2 1.8 1013.1 24.9
2016-Nov-30 06:00S 19°35' E 107°15'1 0.3 1013.3 24.9
2016-Nov-30 02:00S 19°35' E 107°16'1 0.8 1014.6 24.8
2016-Nov-30 01:00S 19°35' E 107°16'1 0.3 1014.4 24.8
2016-Nov-29 23:00S 19°35' E 107°16'1 0.4 1013.4 24.8
2016-Nov-29 20:00S 19°34' E 107°17'0 0.0 1012.9 24.9
2016-Nov-29 18:00S 19°34' E 107°17'1 0.4 1013.3 25.0
2016-Nov-29 15:00S 19°33' E 107°18'1 0.8 1014.3 25.0
2016-Nov-29 14:00S 19°32' E 107°19'0 0.0 1014.4 25.0
2016-Nov-29 13:00S 19°32' E 107°19'0 0.0 1014.0 25.1
2016-Nov-29 11:00S 19°32' E 107°19'1 0.6 1012.9 25.1
2016-Nov-29 10:00S 19°33' E 107°19'1 0.3 1012.6 25.2
2016-Nov-29 06:00S 19°32' E 107°20'1 0.2 1013.4 25.1
2016-Nov-28 23:00S 19°33' E 107°19'0 0.0 1013.2 25.0
2016-Nov-28 21:00S 19°33' E 107°19'1 0.8 1012.1 25.0
2016-Nov-28 20:00S 19°32' E 107°18'0 0.0 1012.2 25.0
2016-Nov-28 19:00S 19°32' E 107°18'0 0.0 1012.2 25.1
2016-Nov-28 18:00S 19°32' E 107°18'1 0.7 1012.5 25.1
2016-Nov-28 16:00S 19°31' E 107°17'1 0.3 1013.6 25.2
2016-Nov-28 14:00S 19°31' E 107°17'1 0.4 1013.5 25.4
2016-Nov-28 12:00S 19°31' E 107°17'0 0.0 1012.3 25.3
2016-Nov-28 11:00S 19°31' E 107°17'1 0.6 1011.6 25.3
2016-Nov-28 10:00S 19°31' E 107°17'1 0.8 1011.4 25.2
2016-Nov-28 09:00S 19°31' E 107°18'0 0.0 1010.8 25.2
2016-Nov-28 07:00S 19°31' E 107°18'1 0.8 1011.9 25.1
2016-Nov-28 06:00S 19°31' E 107°19'2 0.3 1012.4 25.1
2016-Nov-27 23:00S 19°33' E 107°18'1 0.6 1012.0 24.6
2016-Nov-27 22:00S 19°33' E 107°17'   1011.5 24.6
Track history (hours):
 
Tides and Currents Weather Stations Pressure Air Temp Water Temp Dewpoint Dewpoint Depression Visibility Wind Speed Wind Dir Waves Ship Positions

Drifting buoy 53593

Last reported at 2016-Dec-07 22:00 UTC. Time now 2016-Dec-08 06:06 UTC.
Position S 20°40' E 106°05'.

Barometer 1011.9 mb
Water temperature 24.1 ° C

Date/timePositionNaut miles runAvg speedWind from/ knotsBaromVisibWave heightAir tempDewpointWater temp
2016-Dec-07 22:00S 20°40' E 106°05'1 0.8 1011.9 24.1
2016-Dec-07 21:00S 20°40' E 106°05'1 0.6 1011.4 24.1
2016-Dec-07 19:00S 20°39' E 106°07'2 0.5 1011.5 24.1
2016-Dec-07 14:00S 20°40' E 106°09'0 0.0 1013.2 24.2
2016-Dec-07 13:00S 20°40' E 106°09'1 0.4 1012.9 24.2
2016-Dec-07 11:00S 20°39' E 106°10'2 1.8 1011.8 24.2
2016-Dec-07 10:00S 20°38' E 106°11'2 1.7 1011.6 24.3
2016-Dec-07 09:00S 20°38' E 106°13'0 0.0 1011.4 24.3
2016-Dec-07 07:00S 20°38' E 106°13'4 3.6 1011.9 24.3
2016-Dec-07 06:00S 20°37' E 106°17'3 0.5 1012.2 24.3
2016-Dec-06 23:00S 20°37' E 106°20'0 0.0 1013.6 24.2
2016-Dec-06 22:00S 20°37' E 106°20'3 1.7 1012.8 24.2
2016-Dec-06 20:00S 20°35' E 106°23'0 0.0 1011.8 24.2
2016-Dec-06 19:00S 20°35' E 106°23'5 5.1 1011.8 24.3
2016-Dec-06 18:00S 20°35' E 106°29'2 0.6 1012.1 24.3
2016-Dec-06 14:00S 20°35' E 106°31'1 0.3 1013.3 24.4
2016-Dec-06 12:00S 20°35' E 106°32'1 0.8 1012.4 24.5
2016-Dec-06 11:00S 20°35' E 106°32'1 0.8 1011.8 24.5
2016-Dec-06 10:00S 20°35' E 106°32'0 0.0 1011.1 24.5
2016-Dec-06 09:00S 20°35' E 106°32'0 0.0 1010.7 24.6
2016-Dec-06 08:00S 20°35' E 106°32'8 0.9 1011.4 24.6
2016-Dec-05 23:00S 20°29' E 106°37'5 4.6 1013.9 24.5
2016-Dec-05 22:00S 20°26' E 106°40'0 0.0 1013.2 24.5
2016-Dec-05 21:00S 20°26' E 106°40'0 0.0 1012.7 24.6
2016-Dec-05 20:00S 20°26' E 106°40'0 0.0 1012.4 24.6
2016-Dec-05 19:00S 20°26' E 106°40'5 1.1 1012.7 24.6
2016-Dec-05 15:00S 20°23' E 106°44'2 2.3 1014.4 24.7
2016-Dec-05 14:00S 20°22' E 106°46'0 0.0 1013.9 24.7
2016-Dec-05 13:00S 20°22' E 106°46'4 1.2 1013.5 24.7
2016-Dec-05 10:00S 20°20' E 106°49'2 1.8 1012.0 24.8
2016-Dec-05 09:00S 20°19' E 106°51'0 0.0 1011.8 24.8
2016-Dec-05 08:00S 20°19' E 106°51'3 0.4 1012.0 24.8
2016-Dec-05 01:00S 20°16' E 106°52'1 1.3 1013.5 24.7
2016-Dec-05 00:00S 20°15' E 106°52'1 0.8 1013.1 24.7
2016-Dec-04 23:00S 20°14' E 106°53'1 1.3 1012.6 24.7
2016-Dec-04 22:00S 20°14' E 106°54'2 2.1 1012.1 24.7
2016-Dec-04 21:00S 20°13' E 106°56'1 0.3 1012.2 24.7
2016-Dec-04 19:00S 20°12' E 106°56'1 1.3 1012.6 24.8
2016-Dec-04 18:00S 20°13' E 106°56'2 0.6 1012.7 24.8
2016-Dec-04 15:00S 20°11' E 106°56'0 0.0 1013.5 24.8
2016-Dec-04 14:00S 20°11' E 106°56'2 0.9 1013.2 24.8
2016-Dec-04 12:00S 20°10' E 106°56'0 0.0 1012.0 24.8
2016-Dec-04 11:00S 20°10' E 106°56'1 1.3 1011.8 24.9
2016-Dec-04 10:00S 20°08' E 106°57'1 0.8 1011.4 24.9
2016-Dec-04 09:00S 20°08' E 106°58'0 0.0 1011.1 24.9
2016-Dec-04 08:00S 20°08' E 106°58'2 0.8 1011.2 24.9
2016-Dec-04 05:00S 20°05' E 106°58'2 0.5 1012.5 24.8
2016-Dec-04 00:00S 20°03' E 106°58'1 0.3 1012.6 24.7
2016-Dec-03 22:00S 20°02' E 106°58'1 0.6 1011.7 24.7
2016-Dec-03 21:00S 20°03' E 106°58'2 1.6 1011.6 24.7
2016-Dec-03 20:00S 20°02' E 106°59'3 1.1 1011.4 24.7
2016-Dec-03 17:00S 20°00' E 107°02'0 0.0 1012.4 24.8
2016-Dec-03 14:00S 20°00' E 107°02'1 0.6 1013.0 24.8
2016-Dec-03 12:00S 19°59' E 107°04'1 0.3 1012.4 24.8
2016-Dec-03 10:00S 20°00' E 107°04'1 0.6 1011.2 24.9
2016-Dec-03 09:00S 19°59' E 107°04'0 0.0 1011.1 24.9
2016-Dec-03 06:00S 19°59' E 107°04'2 0.5 1011.5 24.9
2016-Dec-03 01:00S 19°57' E 107°03'3 1.0 1012.4 24.7
2016-Dec-02 22:00S 19°55' E 107°05'0 0.0 1010.9 24.7
2016-Dec-02 21:00S 19°55' E 107°05'2 0.6 1010.5 24.7
2016-Dec-02 18:00S 19°53' E 107°05'0 0.0 1010.8 24.8
2016-Dec-02 17:00S 19°53' E 107°05'1 0.6 1011.2 24.8
2016-Dec-02 15:00S 19°52' E 107°07'1 0.6 1011.7 24.8
2016-Dec-02 14:00S 19°52' E 107°07'0 0.0 1011.4 24.8
2016-Dec-02 13:00S 19°52' E 107°07'1 0.4 1011.3 24.8
2016-Dec-02 10:00S 19°51' E 107°07'0 0.0 1010.5 24.8
2016-Dec-02 09:00S 19°51' E 107°07'0 0.0 1010.1 24.9
2016-Dec-02 08:00S 19°51' E 107°07'2 1.2 1010.2 24.9
2016-Dec-02 06:00S 19°49' E 107°09'1 0.1 1011.0 24.9
2016-Dec-02 02:00S 19°49' E 107°08'1 0.4 1013.3 24.6
2016-Dec-01 23:00S 19°48' E 107°09'0 0.0 1012.4 24.6
2016-Dec-01 22:00S 19°48' E 107°09'1 0.8 1011.8 24.6
2016-Dec-01 21:00S 19°47' E 107°10'0 0.0 1011.7 24.6
2016-Dec-01 20:00S 19°47' E 107°10'1 0.6 1011.5 24.7
2016-Dec-01 18:00S 19°46' E 107°10'0 0.0 1011.7 24.7
2016-Dec-01 17:00S 19°46' E 107°10'1 0.3 1012.2 24.7
2016-Dec-01 15:00S 19°46' E 107°10'0 0.0 1012.8 24.7
2016-Dec-01 14:00S 19°46' E 107°10'3 0.4 1013.0 24.7
2016-Dec-01 07:00S 19°43' E 107°11'0 0.0 1012.0 24.8
2016-Dec-01 06:00S 19°43' E 107°11'2 0.4 1012.1 24.8
2016-Dec-01 01:00S 19°41' E 107°12'0 0.0 1014.0 24.7
2016-Dec-01 00:00S 19°41' E 107°12'1 0.8 1013.9 24.7
2016-Nov-30 23:00S 19°41' E 107°13'1 0.6 1013.5 24.7
2016-Nov-30 22:00S 19°41' E 107°12'2 0.8 1013.3 24.7
2016-Nov-30 20:00S 19°40' E 107°13'2 0.3 1013.2 24.7
2016-Nov-30 15:00S 19°38' E 107°14'1 0.6 1014.9 24.8
2016-Nov-30 14:00S 19°39' E 107°14'1 1.3 1014.7 24.8
2016-Nov-30 13:00S 19°38' E 107°14'1 0.3 1014.3 24.9
2016-Nov-30 11:00S 19°38' E 107°14'0 0.0 1013.1 24.9
2016-Nov-30 10:00S 19°38' E 107°14'1 0.3 1012.7 24.9
2016-Nov-30 07:00S 19°37' E 107°15'2 1.8 1013.1 24.9
2016-Nov-30 06:00S 19°35' E 107°15'1 0.3 1013.3 24.9
2016-Nov-30 02:00S 19°35' E 107°16'1 0.8 1014.6 24.8
2016-Nov-30 01:00S 19°35' E 107°16'1 0.3 1014.4 24.8
2016-Nov-29 23:00S 19°35' E 107°16'1 0.4 1013.4 24.8
2016-Nov-29 20:00S 19°34' E 107°17'0 0.0 1012.9 24.9
2016-Nov-29 18:00S 19°34' E 107°17'1 0.4 1013.3 25.0
2016-Nov-29 15:00S 19°33' E 107°18'1 0.8 1014.3 25.0
2016-Nov-29 14:00S 19°32' E 107°19'0 0.0 1014.4 25.0
2016-Nov-29 13:00S 19°32' E 107°19'0 0.0 1014.0 25.1
2016-Nov-29 11:00S 19°32' E 107°19'1 0.6 1012.9 25.1
2016-Nov-29 10:00S 19°33' E 107°19'1 0.3 1012.6 25.2
2016-Nov-29 06:00S 19°32' E 107°20'1 0.2 1013.4 25.1
2016-Nov-28 23:00S 19°33' E 107°19'0 0.0 1013.2 25.0
2016-Nov-28 21:00S 19°33' E 107°19'1 0.8 1012.1 25.0
2016-Nov-28 20:00S 19°32' E 107°18'0 0.0 1012.2 25.0
2016-Nov-28 19:00S 19°32' E 107°18'0 0.0 1012.2 25.1
2016-Nov-28 18:00S 19°32' E 107°18'1 0.7 1012.5 25.1
2016-Nov-28 16:00S 19°31' E 107°17'1 0.3 1013.6 25.2
2016-Nov-28 14:00S 19°31' E 107°17'1 0.4 1013.5 25.4
2016-Nov-28 12:00S 19°31' E 107°17'0 0.0 1012.3 25.3
2016-Nov-28 11:00S 19°31' E 107°17'1 0.6 1011.6 25.3
2016-Nov-28 10:00S 19°31' E 107°17'1 0.8 1011.4 25.2
2016-Nov-28 09:00S 19°31' E 107°18'0 0.0 1010.8 25.2
2016-Nov-28 07:00S 19°31' E 107°18'1 0.8 1011.9 25.1
2016-Nov-28 06:00S 19°31' E 107°19'2 0.3 1012.4 25.1
2016-Nov-27 23:00S 19°33' E 107°18'1 0.6 1012.0 24.6
2016-Nov-27 22:00S 19°33' E 107°17'   1011.5 24.6

Dump ship's entire track history